Time;durP1;ratioP1;P1;durP2;ratioP2;P2;SDS_P1;SDS_P2;PMS_P1;PMS_P2;Temp;Humidity;BMP_temperature;BMP_pressure;BME280_temperature;BME280_humidity;BME280_pressure;Samples;Min_cycle;Max_cycle;Signal;HPM_P1;HPM_P2
2023/09/09 04:47:01;;;;;;;45.67;30.10;;;16.10;99.90;;;;;;5337328;24;20337;-79
2023/09/09 04:49:56;;;;;;;56.43;32.40;;;16.20;99.90;;;;;;4697397;30;20224;-84
2023/09/09 04:52:43;;;;;;;41.53;29.43;;;16.20;99.90;;;;;;4681867;30;20199;-83
2023/09/09 04:55:33;;;;;;;;;;;;;;;;;;;;;
2023/09/09 04:58:26;;;;;;;;;;;;;;;;;;;;;
2023/09/09 05:01:03;;;;;;;43.50;30.20;;;16.30;99.90;;;;;;4681526;30;20216;-83
2023/09/09 05:03:38;;;;;;;43.40;30.37;;;16.30;99.90;;;;;;4680424;30;20324;-82
2023/09/09 05:06:29;;;;;;;40.80;30.00;;;16.30;99.90;;;;;;4680581;30;20235;-83
2023/09/09 05:09:44;;;;;;;44.90;30.57;;;16.30;99.90;;;;;;5129099;27;20292;-84
2023/09/09 05:12:27;;;;;;;;;;;;;;;;;;;;;
2023/09/09 05:15:13;;;;;;;;;;;;;;;;;;;;;
2023/09/09 05:18:00;;;;;;;43.10;28.40;;;16.50;99.90;;;;;;5070977;28;20204;-84
2023/09/09 05:20:43;;;;;;;40.90;29.17;;;16.60;99.90;;;;;;5083389;28;20206;-82
2023/09/09 05:23:39;;;;;;;42.70;30.77;;;16.70;99.90;;;;;;5051762;28;20190;-82
2023/09/09 05:26:21;;;;;;;43.30;29.23;;;16.60;99.90;;;;;;5050844;28;20299;-83
2023/09/09 05:29:11;;;;;;;40.67;29.03;;;16.80;99.90;;;;;;5051528;28;20213;-82
2023/09/09 05:32:20;;;;;;;47.23;30.40;;;16.80;99.90;;;;;;5068646;28;20182;-83
2023/09/09 05:35:33;;;;;;;42.67;30.47;;;16.90;99.90;;;;;;5067107;28;20272;-79
2023/09/09 05:38:46;;;;;;;44.47;30.57;;;17.00;99.90;;;;;;5066899;28;20201;-83
2023/09/09 05:42:25;;;;;;;52.57;30.97;;;17.10;99.90;;;;;;4986390;28;20204;-83
2023/09/09 05:45:32;;;;;;;50.20;31.03;;;17.30;99.90;;;;;;4950869;28;20205;-84
2023/09/09 05:48:18;;;;;;;44.20;28.93;;;17.40;99.90;;;;;;4966723;28;20259;-83
2023/09/09 05:51:37;;;;;;;50.07;30.63;;;17.50;99.90;;;;;;5327472;22;20245;-84
2023/09/09 05:58:58;;;;;;;;;;;;;;;;;;;;;
2023/09/09 06:01:52;;;;;;;38.83;28.60;;;17.90;99.90;;;;;;4928255;29;20322;-84
2023/09/09 06:04:59;;;;;;;;;;;;;;;;;;;;;
2023/09/09 06:08:28;;;;;;;39.73;28.03;;;18.10;99.90;;;;;;4909476;29;20621;-79
2023/09/09 06:11:52;;;;;;;51.33;28.00;;;18.20;99.90;;;;;;4852990;29;20354;-79
2023/09/09 06:15:03;;;;;;;;;;;;;;;;;;;;;
2023/09/09 06:18:33;;;;;;;;;;;;;;;;;;;;;
2023/09/09 06:21:35;;;;;;;39.33;24.40;;;18.70;99.90;;;;;;4769268;30;20355;-84
2023/09/09 06:24:39;;;;;;;34.20;24.33;;;18.80;99.90;;;;;;4769193;30;20219;-83
2023/09/09 06:27:44;;;;;;;30.90;23.40;;;18.90;99.90;;;;;;4772756;30;20225;-83
2023/09/09 06:30:24;;;;;;;57.50;26.30;;;19.00;99.90;;;;;;4770702;30;20205;-83
2023/09/09 06:33:38;;;;;;;;;;;;;;;;;;;;;
2023/09/09 06:41:50;;;;;;;33.07;22.40;;;19.20;99.90;;;;;;4782140;30;20303;-86
2023/09/09 06:44:25;;;;;;;46.70;24.60;;;19.30;99.90;;;;;;4806657;29;20670;-83
2023/09/09 06:47:22;;;;;;;;;;;;;;;;;;;;;
2023/09/09 06:50:06;;;;;;;;;;;;;;;;;;;;;
2023/09/09 06:52:59;;;;;;;39.17;22.93;;;19.50;99.90;;;;;;4878953;29;20331;-82
2023/09/09 06:55:43;;;;;;;;;;;;;;;;;;;;;
2023/09/09 06:58:23;;;;;;;31.77;22.53;;;19.80;99.90;;;;;;4846468;29;20199;-79
2023/09/09 07:01:12;;;;;;;;;;;;;;;;;;;;;
2023/09/09 07:04:18;;;;;;;34.57;22.00;;;20.00;99.90;;;;;;4828292;29;20220;-80
2023/09/09 07:07:13;;;;;;;31.17;22.20;;;20.00;99.90;;;;;;4843629;29;20248;-79
2023/09/09 07:12:49;;;;;;;45.63;24.60;;;20.30;99.90;;;;;;4803254;29;20196;-82
2023/09/09 07:15:20;;;;;;;42.63;23.83;;;20.40;99.90;;;;;;4788304;29;20244;-83
2023/09/09 07:18:17;;;;;;;36.77;22.13;;;20.50;99.90;;;;;;4762234;30;20571;-83
2023/09/09 07:21:06;;;;;;;36.07;22.27;;;20.60;99.90;;;;;;4797886;29;20219;-84
2023/09/09 07:24:34;;;;;;;;;;;;;;;;;;;;;
2023/09/09 07:27:42;;;;;;;29.53;21.37;;;21.00;99.90;;;;;;4784663;29;20253;-83
2023/09/09 07:30:53;;;;;;;28.77;20.10;;;21.10;99.90;;;;;;4784162;29;20212;-81
2023/09/09 07:34:01;;;;;;;38.03;20.97;;;21.30;99.90;;;;;;4778027;30;20220;-83
2023/09/09 07:36:36;;;;;;;24.83;18.00;;;21.50;99.90;;;;;;4780969;29;20332;-79
2023/09/09 07:39:49;;;;;;;30.80;18.23;;;21.50;99.90;;;;;;4766526;30;20219;-82
2023/09/09 07:43:03;;;;;;;33.43;20.17;;;21.70;99.90;;;;;;4766625;30;20272;-81
2023/09/09 07:46:01;;;;;;;28.80;16.40;;;21.50;99.90;;;;;;4767191;30;20559;-82
2023/09/09 07:48:48;;;;;;;28.27;16.63;;;21.60;99.90;;;;;;4791018;29;20236;-76
2023/09/09 07:51:39;;;;;;;21.87;14.50;;;21.90;99.90;;;;;;4876026;29;20263;-78
2023/09/09 07:54:40;;;;;;;21.23;14.20;;;22.10;99.90;;;;;;4874555;29;20216;-79
2023/09/09 07:57:47;;;;;;;30.40;16.80;;;22.30;99.90;;;;;;4879118;29;20689;-77
2023/09/09 08:00:58;;;;;;;20.90;15.23;;;22.40;99.90;;;;;;4942607;28;20201;-76
2023/09/09 08:04:13;;;;;;;31.83;18.77;;;22.60;99.90;;;;;;4954653;28;20202;-76
2023/09/09 08:07:28;;;;;;;29.30;18.23;;;22.70;99.90;;;;;;4913408;29;20230;-82
2023/09/09 08:10:44;;;;;;;27.53;16.57;;;22.70;99.90;;;;;;4839052;29;20214;-82
2023/09/09 08:27:10;;;;;;;21.27;13.48;;;24.00;99.90;;;;;;5096576;23;20569;-78
2023/09/09 08:29:38;;;;;;;25.38;14.27;;;24.40;99.90;;;;;;5006486;28;20228;-78
2023/09/09 08:32:05;;;;;;;20.73;15.13;;;24.90;99.90;;;;;;4991408;28;20201;-79
2023/09/09 08:34:33;;;;;;;19.58;13.77;;;24.90;99.90;;;;;;4991273;28;20650;-79
2023/09/09 08:37:04;;;;;;;19.20;14.00;;;25.30;99.90;;;;;;4991959;28;20228;-78
2023/09/09 08:39:31;;;;;;;23.63;13.60;;;25.80;99.90;;;;;;4991862;28;20213;-79
2023/09/09 08:42:12;;;;;;;19.92;13.43;;;26.00;99.90;;;;;;4991462;28;20197;-80
2023/09/09 08:45:10;;;;;;;22.48;14.60;;;26.10;99.90;;;;;;4991849;28;20207;-80
2023/09/09 08:47:41;;;;;;;23.80;14.30;;;26.40;99.90;;;;;;4990365;28;20200;-79
2023/09/09 08:50:10;;;;;;;17.00;12.52;;;26.50;99.90;;;;;;4992208;28;20601;-79
2023/09/09 08:52:43;;;;;;;18.20;11.90;;;26.60;99.90;;;;;;4992116;28;20225;-80
2023/09/09 08:55:11;;;;;;;18.35;11.40;;;26.80;99.90;;;;;;4992358;28;20276;-81
2023/09/09 08:57:38;;;;;;;18.23;12.57;;;27.20;99.90;;;;;;4992305;28;20350;-78
2023/09/09 09:00:07;;;;;;;18.45;13.48;;;27.40;99.90;;;;;;4990913;28;20189;-77
2023/09/09 09:02:35;;;;;;;17.75;12.77;;;27.20;99.90;;;;;;4991805;28;20231;-77
2023/09/09 09:05:04;;;;;;;19.25;12.63;;;27.00;99.90;;;;;;4989929;28;20680;-79
2023/09/09 09:07:34;;;;;;;15.70;12.02;;;27.10;99.90;;;;;;4991445;28;20192;-81
2023/09/09 09:10:02;;;;;;;15.23;11.75;;;27.20;99.90;;;;;;4991337;28;20207;-80
2023/09/09 09:12:33;;;;;;;15.85;11.85;;;27.40;99.90;;;;;;4991403;28;20552;-80
2023/09/09 09:15:01;;;;;;;19.30;13.10;;;27.60;99.90;;;;;;4990944;28;20518;-79
2023/09/09 09:17:30;;;;;;;15.95;11.07;;;27.60;99.90;;;;;;4991670;28;20200;-79
2023/09/09 09:19:58;;;;;;;16.60;11.38;;;27.60;99.90;;;;;;4991219;28;20279;-79
2023/09/09 09:22:27;;;;;;;18.30;10.95;;;27.50;99.90;;;;;;4990556;28;20244;-81
2023/09/09 09:24:55;;;;;;;15.70;11.80;;;27.90;99.90;;;;;;4991532;28;20189;-80
2023/09/09 09:27:23;;;;;;;16.58;11.18;;;28.10;99.90;;;;;;4990623;28;20267;-81
2023/09/09 09:29:51;;;;;;;16.73;9.48;;;28.10;99.90;;;;;;4990864;28;20216;-81
2023/09/09 09:32:21;;;;;;;17.05;9.27;;;28.30;99.90;;;;;;4990087;28;20299;-80
2023/09/09 09:34:50;;;;;;;13.32;7.97;;;28.60;99.90;;;;;;4989804;28;20205;-78
2023/09/09 09:37:29;;;;;;;13.60;8.02;;;29.10;99.90;;;;;;4991328;28;20296;-78
2023/09/09 09:39:57;;;;;;;14.68;8.35;;;29.70;99.90;;;;;;4990208;28;20658;-78
2023/09/09 09:42:25;;;;;;;13.88;8.65;;;30.10;99.90;;;;;;4990911;28;20196;-78
2023/09/09 09:45:08;;;;;;;12.75;8.82;;;30.00;99.90;;;;;;4990567;28;20197;-77
2023/09/09 09:47:46;;;;;;;11.00;7.85;;;30.20;99.90;;;;;;5006493;28;20181;-79
2023/09/09 09:50:19;;;;;;;9.77;7.97;;;30.50;99.90;;;;;;4990363;28;20227;-78
2023/09/09 09:52:48;;;;;;;11.80;8.52;;;30.90;99.90;;;;;;4991279;28;20214;-78
2023/09/09 09:55:18;;;;;;;11.98;8.85;;;31.10;99.90;;;;;;4993687;28;20271;-84
2023/09/09 09:58:18;;;;;;;10.07;7.45;;;31.10;99.90;;;;;;5008676;28;20192;-84
2023/09/09 10:01:21;;;;;;;11.85;7.30;;;31.10;99.90;;;;;;4871612;29;20205;-84
2023/09/09 10:04:10;;;;;;;13.73;7.40;;;31.10;99.90;;;;;;4890748;29;20675;-84
2023/09/09 10:06:55;;;;;;;25.98;12.93;;;31.50;99.90;;;;;;4919311;29;20230;-84
2023/09/09 10:10:11;;;;;;;26.08;18.83;;;31.80;99.90;;;;;;4919336;29;20237;-82
2023/09/09 10:13:14;;;;;;;15.77;7.30;;;32.10;99.60;;;;;;4903165;29;20286;-85
2023/09/09 10:16:00;;;;;;;8.73;6.78;;;32.20;97.50;;;;;;4917616;29;20634;-84
2023/09/09 10:18:55;;;;;;;9.07;6.57;;;31.90;96.50;;;;;;4902584;29;20238;-84
2023/09/09 10:21:37;;;;;;;10.80;6.18;;;31.50;95.50;;;;;;4917289;29;20270;-82
2023/09/09 10:24:26;;;;;;;8.88;6.80;;;31.30;95.10;;;;;;4917819;29;20270;-85
2023/09/09 10:27:21;;;;;;;11.05;7.03;;;31.50;96.10;;;;;;4929627;29;20306;-85
2023/09/09 10:30:10;;;;;;;10.88;6.57;;;31.60;95.50;;;;;;4903782;29;20610;-85
2023/09/09 10:33:01;;;;;;;17.23;9.95;;;31.60;96.90;;;;;;4880000;29;20723;-85
2023/09/09 10:35:50;;;;;;;12.40;7.30;;;31.60;96.40;;;;;;4842690;29;20225;-84
2023/09/09 10:38:44;;;;;;;9.20;6.50;;;31.90;94.50;;;;;;4918647;29;20257;-83
2023/09/09 10:41:30;;;;;;;11.52;6.78;;;32.10;94.80;;;;;;4902769;29;20257;-83
2023/09/09 10:44:02;;;;;;;13.07;7.53;;;32.00;94.60;;;;;;4934091;29;20226;-83
2023/09/09 10:46:39;;;;;;;11.85;7.10;;;32.20;93.10;;;;;;4919325;29;20203;-82
2023/09/09 10:49:17;;;;;;;10.02;6.40;;;32.40;93.20;;;;;;4934111;29;20226;-82
2023/09/09 10:51:54;;;;;;;33.20;9.27;;;32.60;93.00;;;;;;4919347;29;20233;-82
2023/09/09 10:54:28;;;;;;;22.17;8.20;;;32.80;92.80;;;;;;4918015;29;20203;-82
2023/09/09 11:00:43;;;;;;;8.90;6.60;;;32.50;91.80;;;;;;4912733;29;20239;-81
2023/09/09 11:03:27;;;;;;;9.65;6.43;;;32.40;92.20;;;;;;4907382;29;20202;-81
2023/09/09 11:06:11;;;;;;;9.65;6.55;;;32.30;93.20;;;;;;4951758;28;20228;-82
2023/09/09 11:08:49;;;;;;;15.55;7.78;;;32.20;92.30;;;;;;4952752;29;20337;-81
2023/09/09 11:11:35;;;;;;;9.45;7.57;;;32.30;92.40;;;;;;4936403;29;20198;-81
2023/09/09 11:14:04;;;;;;;8.80;6.75;;;32.20;91.90;;;;;;4988714;28;20212;-81
2023/09/09 11:17:05;;;;;;;48.05;11.93;;;32.60;92.20;;;;;;4977537;28;20196;-82
2023/09/09 11:19:42;;;;;;;9.45;7.00;;;32.80;93.00;;;;;;4992076;28;20191;-80
2023/09/09 11:22:42;;;;;;;10.45;6.90;;;33.30;91.60;;;;;;4993490;28;20208;-82
2023/09/09 11:25:27;;;;;;;23.90;7.80;;;33.60;91.00;;;;;;4991328;28;20205;-83
2023/09/09 11:28:06;;;;;;;8.50;6.90;;;33.90;90.10;;;;;;4989108;28;20189;-80
2023/09/09 11:30:46;;;;;;;8.50;6.65;;;34.00;89.90;;;;;;4991331;28;20189;-82
2023/09/09 11:33:23;;;;;;;12.60;6.95;;;34.60;90.30;;;;;;4990512;28;20205;-83
2023/09/09 11:36:06;;;;;;;11.52;6.53;;;35.10;86.70;;;;;;4990718;28;20219;-82
2023/09/09 11:38:40;;;;;;;12.90;6.78;;;35.60;84.70;;;;;;4975627;28;20196;-81
2023/09/09 11:41:27;;;;;;;12.68;6.45;;;35.80;82.10;;;;;;4991733;28;20244;-83
2023/09/09 11:44:06;;;;;;;9.20;6.63;;;36.40;81.60;;;;;;4991813;28;20196;-80
2023/09/09 11:46:45;;;;;;;8.48;6.40;;;36.80;80.80;;;;;;4992115;28;20243;-81
2023/09/09 11:49:16;;;;;;;18.35;7.70;;;36.90;77.20;;;;;;4991322;28;20694;-78
2023/09/09 11:51:49;;;;;;;11.18;7.20;;;36.80;76.00;;;;;;4975707;28;20216;-81
2023/09/09 11:54:30;;;;;;;8.55;6.82;;;36.60;75.10;;;;;;4976296;28;20196;-83
2023/09/09 11:57:08;;;;;;;10.52;7.57;;;36.00;77.00;;;;;;4991788;28;20193;-81
2023/09/09 11:59:50;;;;;;;14.40;7.25;;;35.70;77.40;;;;;;5007658;28;20174;-82
2023/09/09 12:02:22;;;;;;;11.25;7.90;;;35.90;78.80;;;;;;4991267;28;20189;-81
2023/09/09 12:05:04;;;;;;;11.27;7.47;;;36.30;75.80;;;;;;4975330;28;20189;-81
2023/09/09 12:07:34;;;;;;;13.20;8.38;;;36.60;74.50;;;;;;4992332;28;20251;-82
2023/09/09 12:10:12;;;;;;;12.93;7.85;;;36.50;74.80;;;;;;4991012;28;20274;-82
2023/09/09 12:12:46;;;;;;;16.25;9.20;;;36.60;73.90;;;;;;4991432;28;20652;-82
2023/09/09 12:15:18;;;;;;;41.45;11.45;;;36.80;72.40;;;;;;4991576;28;20199;-83
2023/09/09 12:17:47;;;;;;;16.90;8.55;;;37.00;73.00;;;;;;4990754;28;20275;-81
2023/09/09 12:20:56;;;;;;;24.35;9.25;;;36.80;72.20;;;;;;4991357;28;20703;-82
2023/09/09 12:23:29;;;;;;;19.48;8.73;;;36.20;73.70;;;;;;4991360;28;20291;-81
2023/09/09 12:26:14;;;;;;;11.10;7.63;;;36.20;73.90;;;;;;4975157;28;20288;-83
2023/09/09 12:29:11;;;;;;;10.98;7.63;;;36.20;75.60;;;;;;4977600;28;20235;-82
2023/09/09 12:31:55;;;;;;;31.50;9.95;;;36.10;75.00;;;;;;4991240;28;20236;-84
2023/09/09 12:34:25;;;;;;;21.25;9.30;;;36.00;75.10;;;;;;4974525;28;20196;-82
2023/09/09 12:37:12;;;;;;;26.85;8.98;;;35.60;74.40;;;;;;4992456;28;20790;-81
2023/09/09 12:40:00;;;;;;;17.48;8.10;;;35.30;77.10;;;;;;4990661;28;20247;-83
2023/09/09 12:42:32;;;;;;;10.18;7.53;;;35.40;76.00;;;;;;4990899;28;20212;-79
2023/09/09 12:45:10;;;;;;;25.33;7.95;;;35.10;74.60;;;;;;4991918;28;20212;-79
2023/09/09 12:47:38;;;;;;;21.60;8.57;;;35.30;75.10;;;;;;4974948;28;20205;-79
2023/09/09 12:50:07;;;;;;;10.70;7.05;;;35.20;75.30;;;;;;4975030;28;20319;-80
2023/09/09 12:52:45;;;;;;;12.98;7.72;;;35.40;73.90;;;;;;4990586;28;20236;-82
2023/09/09 12:55:30;;;;;;;15.00;7.85;;;35.50;75.70;;;;;;4976841;28;20201;-81
2023/09/09 12:58:08;;;;;;;20.05;8.85;;;35.10;76.10;;;;;;4990657;28;20205;-82
2023/09/09 13:00:45;;;;;;;13.55;8.05;;;34.90;74.20;;;;;;4989693;28;20207;-80
2023/09/09 13:03:31;;;;;;;24.23;9.52;;;34.60;75.10;;;;;;4991648;28;20582;-81
2023/09/09 13:06:12;;;;;;;13.88;8.13;;;34.10;75.10;;;;;;4990059;28;20235;-81
2023/09/09 13:08:42;;;;;;;11.68;7.30;;;33.40;75.80;;;;;;4988978;28;20727;-81
2023/09/09 13:11:17;;;;;;;11.65;7.97;;;33.20;77.40;;;;;;4990041;28;20201;-80
2023/09/09 13:13:52;;;;;;;13.23;7.35;;;33.10;77.50;;;;;;4990002;28;20275;-81
2023/09/09 13:16:34;;;;;;;10.57;7.25;;;33.00;79.20;;;;;;4987395;28;20216;-80
2023/09/09 13:19:06;;;;;;;8.88;7.32;;;32.90;77.50;;;;;;4990085;28;20242;-81
2023/09/09 13:21:38;;;;;;;12.90;7.35;;;32.70;79.90;;;;;;4990603;28;20307;-81
2023/09/09 13:24:12;;;;;;;10.77;8.07;;;32.50;80.90;;;;;;4990621;28;20562;-81
2023/09/09 13:26:50;;;;;;;10.25;7.72;;;32.30;80.30;;;;;;4989285;28;20248;-79
2023/09/09 13:29:22;;;;;;;10.98;7.53;;;32.00;80.70;;;;;;4992639;28;20216;-80
2023/09/09 13:32:09;;;;;;;11.25;8.15;;;31.80;80.40;;;;;;4994527;28;20250;-82
2023/09/09 13:34:45;;;;;;;14.48;7.50;;;31.70;82.30;;;;;;4979441;28;20204;-80
2023/09/09 13:37:36;;;;;;;11.75;8.07;;;31.60;83.30;;;;;;5010312;28;20224;-78
2023/09/09 13:40:21;;;;;;;15.88;7.90;;;31.60;83.90;;;;;;4993273;28;20282;-80
2023/09/09 13:42:55;;;;;;;18.38;8.38;;;31.50;84.20;;;;;;4978213;28;20299;-81
2023/09/09 13:45:34;;;;;;;13.00;8.32;;;31.40;84.70;;;;;;4994322;28;20192;-83
2023/09/09 13:48:23;;;;;;;20.13;8.63;;;31.20;84.50;;;;;;4994353;28;20174;-82
2023/09/09 13:51:23;;;;;;;21.50;9.48;;;31.20;84.90;;;;;;4993399;28;20234;-82
2023/09/09 13:54:34;;;;;;;;;;;;;;;;;;;;;
2023/09/09 13:57:23;;;;;;;13.68;8.82;;;31.00;84.40;;;;;;4992427;28;20205;-80
2023/09/09 14:00:24;;;;;;;11.18;8.30;;;30.80;84.10;;;;;;4992317;28;20187;-83
2023/09/09 14:03:02;;;;;;;10.48;7.65;;;30.60;83.90;;;;;;4993128;28;20274;-82
2023/09/09 14:05:43;;;;;;;11.20;7.28;;;30.60;84.80;;;;;;4993762;28;20229;-82
2023/09/09 14:08:16;;;;;;;11.15;7.50;;;30.50;85.10;;;;;;4978131;28;20201;-83
2023/09/09 14:10:47;;;;;;;12.82;7.95;;;30.50;87.80;;;;;;4977697;28;20213;-82
2023/09/09 14:13:17;;;;;;;11.40;8.05;;;30.40;85.20;;;;;;4991400;28;20201;-81
2023/09/09 14:15:48;;;;;;;13.45;7.93;;;30.10;84.20;;;;;;4993596;28;20224;-80
2023/09/09 14:18:21;;;;;;;15.35;7.90;;;29.90;85.00;;;;;;4993299;28;20201;-80
2023/09/09 14:21:24;;;;;;;12.15;8.38;;;29.90;84.70;;;;;;4994166;28;20566;-83
2023/09/09 14:23:55;;;;;;;9.85;7.78;;;30.00;85.30;;;;;;4995599;28;20310;-81
2023/09/09 14:26:29;;;;;;;11.60;7.68;;;29.90;84.50;;;;;;4977426;28;20232;-80
2023/09/09 14:29:09;;;;;;;9.00;7.57;;;29.80;84.60;;;;;;4977069;28;20205;-82
2023/09/09 14:31:52;;;;;;;10.18;7.40;;;29.80;85.50;;;;;;4993508;28;20201;-82
2023/09/09 14:34:38;;;;;;;11.60;7.93;;;29.80;86.30;;;;;;4993559;28;20200;-83
2023/09/09 14:37:33;;;;;;;11.10;7.28;;;29.70;87.50;;;;;;4980462;28;20193;-82
2023/09/09 14:40:10;;;;;;;10.27;7.50;;;29.70;87.20;;;;;;4992555;28;20197;-83
2023/09/09 14:42:50;;;;;;;11.73;7.82;;;29.60;85.70;;;;;;4992701;28;20197;-80
2023/09/09 14:45:33;;;;;;;9.90;7.40;;;29.60;83.90;;;;;;4978626;28;20204;-81
2023/09/09 14:48:18;;;;;;;9.82;7.55;;;29.60;84.70;;;;;;4994135;28;20288;-80
2023/09/09 14:50:50;;;;;;;10.98;7.80;;;29.50;85.80;;;;;;4992957;28;20220;-80
2023/09/09 14:53:37;;;;;;;10.82;8.05;;;29.40;87.50;;;;;;4993013;28;20281;-79
2023/09/09 14:56:18;;;;;;;18.38;9.10;;;29.30;86.50;;;;;;4976072;28;20628;-83
2023/09/09 14:58:51;;;;;;;11.77;7.88;;;29.20;86.70;;;;;;4992260;28;20193;-83
2023/09/09 15:09:14;;;;;;;8.80;7.25;;;29.00;87.40;;;;;;4917534;29;20230;-83
2023/09/09 15:19:27;;;;;;;11.20;7.60;;;28.80;86.60;;;;;;5236361;23;20776;-82
2023/09/09 15:22:08;;;;;;;15.85;8.35;;;28.70;88.50;;;;;;4958196;28;20343;-85
2023/09/09 15:24:50;;;;;;;10.57;7.75;;;28.60;90.10;;;;;;4973173;28;20210;-86
2023/09/09 15:27:39;;;;;;;12.63;7.70;;;28.50;90.50;;;;;;4972296;28;20198;-85
2023/09/09 15:30:26;;;;;;;10.32;7.47;;;28.30;90.30;;;;;;4957953;28;20559;-82
2023/09/09 15:33:03;;;;;;;10.18;7.35;;;28.30;90.60;;;;;;4958244;28;20760;-86
2023/09/09 15:35:39;;;;;;;9.68;7.72;;;28.20;91.10;;;;;;4974030;28;20217;-86
2023/09/09 15:38:32;;;;;;;10.75;7.68;;;28.10;91.10;;;;;;4916956;29;20209;-85
2023/09/09 15:42:18;;;;;;;;;;;;;;;;;;;;;
2023/09/09 15:45:32;;;;;;;;;;;;;;;;;;;;;
2023/09/09 15:48:41;;;;;;;10.55;7.50;;;27.80;91.50;;;;;;4876043;29;20205;-81
2023/09/09 15:51:37;;;;;;;21.60;9.10;;;27.70;92.00;;;;;;4875604;29;20228;-81
2023/09/09 15:58:20;;;;;;;;;;;;;;;;;;;;;
2023/09/09 16:01:41;;;;;;;;;;;;;;;;;;;;;
2023/09/09 16:08:49;;;;;;;12.90;7.25;;;27.20;92.90;;;;;;4870679;29;20549;-84
2023/09/09 16:12:37;;;;;;;11.00;7.07;;;27.10;93.00;;;;;;4896950;29;20538;-82
2023/09/09 16:20:15;;;;;;;13.57;7.60;;;26.70;93.30;;;;;;4794589;29;20305;-82
2023/09/09 16:22:58;;;;;;;12.27;6.97;;;26.60;93.80;;;;;;4719962;30;20261;-83
2023/09/09 16:25:35;;;;;;;10.10;7.40;;;26.40;93.80;;;;;;4733786;30;20666;-81
2023/09/09 16:31:16;;;;;;;10.68;7.20;;;26.20;94.20;;;;;;4733082;30;20350;-81
2023/09/09 16:33:50;;;;;;;28.30;9.77;;;26.10;94.40;;;;;;4719102;30;20648;-82
2023/09/09 16:36:18;;;;;;;10.93;7.60;;;26.00;94.60;;;;;;4748199;30;20213;-82
2023/09/09 16:38:47;;;;;;;16.38;8.75;;;25.90;95.00;;;;;;4733757;30;20201;-83
2023/09/09 16:41:16;;;;;;;21.02;8.95;;;25.80;95.10;;;;;;4733207;30;20198;-81
2023/09/09 16:44:04;;;;;;;;;;;;;;;;;;;;;
2023/09/09 16:46:50;;;;;;;10.38;7.90;;;25.60;96.00;;;;;;4783802;30;20257;-79
2023/09/09 16:49:36;;;;;;;11.85;8.07;;;25.50;96.70;;;;;;4783895;30;20216;-82
2023/09/09 16:52:18;;;;;;;11.95;8.32;;;25.40;97.30;;;;;;4783639;30;20228;-80
2023/09/09 16:54:46;;;;;;;14.68;9.07;;;25.30;97.40;;;;;;4784488;30;20657;-81
2023/09/09 16:57:16;;;;;;;15.38;8.70;;;25.20;97.80;;;;;;4856517;29;20213;-81
2023/09/09 17:00:16;;;;;;;12.85;8.52;;;25.10;98.10;;;;;;4880234;29;20254;-81
2023/09/09 17:02:48;;;;;;;13.52;8.18;;;25.00;98.30;;;;;;4897152;29;20206;-81
2023/09/09 17:05:19;;;;;;;14.10;8.90;;;24.90;98.90;;;;;;4912880;29;20200;-80
2023/09/09 17:07:53;;;;;;;13.15;8.80;;;24.80;99.30;;;;;;4896850;29;20199;-79
2023/09/09 17:10:20;;;;;;;13.80;8.68;;;24.80;99.60;;;;;;4912893;29;20231;-81
2023/09/09 17:12:51;;;;;;;12.95;8.48;;;24.70;99.90;;;;;;4896668;29;20294;-79
2023/09/09 17:15:34;;;;;;;11.43;8.70;;;24.60;99.90;;;;;;4932189;28;20210;-80
2023/09/09 17:18:06;;;;;;;14.25;8.52;;;24.50;99.90;;;;;;4955577;28;20693;-81
2023/09/09 17:20:36;;;;;;;12.13;8.48;;;24.40;99.90;;;;;;4972869;28;20217;-80
2023/09/09 17:23:05;;;;;;;14.70;8.52;;;24.20;99.90;;;;;;4972401;28;20277;-79
2023/09/09 17:25:33;;;;;;;12.98;8.70;;;24.10;99.90;;;;;;4971688;28;20227;-80
2023/09/09 17:28:04;;;;;;;14.88;9.10;;;24.10;99.90;;;;;;4971528;28;20222;-80
2023/09/09 17:30:32;;;;;;;14.30;9.00;;;24.00;99.90;;;;;;4955727;28;20221;-81
2023/09/09 17:33:06;;;;;;;11.00;8.32;;;23.90;99.90;;;;;;4971788;28;20240;-81
2023/09/09 17:35:34;;;;;;;12.23;8.43;;;23.90;99.90;;;;;;4971276;28;20273;-81
2023/09/09 17:38:02;;;;;;;14.30;8.95;;;23.80;99.90;;;;;;4972698;28;20200;-81
2023/09/09 17:40:32;;;;;;;10.82;8.57;;;23.70;99.90;;;;;;4971361;28;20209;-80
2023/09/09 17:43:03;;;;;;;13.65;9.25;;;23.70;99.90;;;;;;4972646;28;20194;-80
2023/09/09 17:45:31;;;;;;;12.02;8.35;;;23.60;99.90;;;;;;4972382;28;20306;-80
2023/09/09 17:48:07;;;;;;;14.32;8.80;;;23.60;99.90;;;;;;4972228;28;20210;-82
2023/09/09 17:50:35;;;;;;;15.43;8.80;;;23.50;99.90;;;;;;4971262;28;20264;-81
2023/09/09 17:53:08;;;;;;;11.40;8.40;;;23.50;99.90;;;;;;4972932;28;20193;-86
2023/09/09 17:55:37;;;;;;;12.48;9.00;;;23.50;99.90;;;;;;4972519;28;20188;-85
2023/09/09 17:58:11;;;;;;;14.60;8.60;;;23.40;99.90;;;;;;4986696;28;20653;-85
2023/09/09 18:00:38;;;;;;;12.52;8.52;;;23.30;99.90;;;;;;4971026;28;20720;-84
2023/09/09 18:03:15;;;;;;;14.82;8.73;;;23.30;99.90;;;;;;4972186;28;20629;-85
2023/09/09 18:05:44;;;;;;;15.30;9.05;;;23.30;99.90;;;;;;4970804;28;20217;-85
2023/09/09 18:12:24;;;;;;;13.70;8.80;;;23.10;99.90;;;;;;4930758;29;20199;-85
2023/09/09 18:15:06;;;;;;;12.88;8.88;;;23.10;99.90;;;;;;4917241;29;20198;-85
2023/09/09 18:17:50;;;;;;;16.03;9.07;;;23.00;99.90;;;;;;4920446;29;20211;-84
2023/09/09 18:20:24;;;;;;;12.27;8.80;;;23.00;99.90;;;;;;4919916;29;20254;-85
2023/09/09 18:22:52;;;;;;;14.00;9.63;;;23.00;99.90;;;;;;4919022;29;20232;-79
2023/09/09 18:25:20;;;;;;;15.03;9.73;;;23.00;99.90;;;;;;4903257;29;20636;-82
2023/09/09 18:27:48;;;;;;;15.48;9.63;;;22.90;99.90;;;;;;4934493;29;20191;-81
2023/09/09 18:30:23;;;;;;;16.45;9.60;;;22.80;99.90;;;;;;4903111;29;20238;-81
2023/09/09 18:32:53;;;;;;;16.20;9.60;;;22.80;99.90;;;;;;4902771;29;20258;-81
2023/09/09 18:35:35;;;;;;;13.67;9.80;;;22.70;99.90;;;;;;4934235;29;20405;-82
2023/09/09 18:38:42;;;;;;;;;;;;;;;;;;;;;
2023/09/09 18:42:01;;;;;;;14.00;9.68;;;22.60;99.90;;;;;;4917032;29;20203;-82
2023/09/09 18:45:29;;;;;;;14.83;9.57;;;22.60;99.90;;;;;;4923354;29;20210;-82
2023/09/09 18:48:25;;;;;;;19.27;10.30;;;22.50;99.90;;;;;;4867343;29;20209;-81
2023/09/09 18:51:12;;;;;;;14.90;9.80;;;22.40;99.90;;;;;;4911505;29;20240;-81
2023/09/09 18:53:48;;;;;;;15.17;10.30;;;22.30;99.90;;;;;;4915133;29;20199;-81
2023/09/09 18:56:44;;;;;;;16.77;9.30;;;22.30;99.90;;;;;;4900810;29;20211;-81
2023/09/09 18:59:12;;;;;;;13.87;9.83;;;22.20;99.90;;;;;;4899084;29;20223;-79
2023/09/09 19:01:40;;;;;;;20.47;11.20;;;22.20;99.90;;;;;;4914839;29;20710;-80
2023/09/09 19:04:11;;;;;;;15.13;10.37;;;22.10;99.90;;;;;;4914981;29;20544;-78
2023/09/09 19:06:39;;;;;;;14.80;9.87;;;22.10;99.90;;;;;;4914110;29;20224;-79
2023/09/09 19:09:09;;;;;;;14.67;9.80;;;22.00;99.90;;;;;;4898986;29;20199;-81
2023/09/09 19:11:36;;;;;;;12.70;9.17;;;22.00;99.90;;;;;;4918871;28;20255;-81
2023/09/09 19:14:05;;;;;;;15.03;9.50;;;21.90;99.90;;;;;;4973045;28;20629;-82
2023/09/09 19:16:34;;;;;;;13.93;9.27;;;21.90;99.90;;;;;;4973228;28;20221;-79
2023/09/09 19:19:04;;;;;;;16.63;9.77;;;21.90;99.90;;;;;;4974196;28;20323;-80
2023/09/09 19:21:32;;;;;;;18.93;10.10;;;21.80;99.90;;;;;;4972882;28;20495;-80
2023/09/09 19:24:03;;;;;;;15.90;9.50;;;21.80;99.90;;;;;;4972885;28;20270;-80
2023/09/09 19:26:33;;;;;;;24.13;10.40;;;21.70;99.90;;;;;;4972591;28;20201;-79
2023/09/09 19:29:06;;;;;;;17.27;9.57;;;21.70;99.90;;;;;;4973163;28;20209;-82
2023/09/09 19:31:36;;;;;;;12.63;9.27;;;21.70;99.90;;;;;;4972440;28;20220;-81
2023/09/09 19:34:04;;;;;;;13.87;10.20;;;21.70;99.90;;;;;;4974308;28;20515;-80
2023/09/09 19:36:32;;;;;;;16.47;9.17;;;21.60;99.90;;;;;;4988756;28;20260;-81
2023/09/09 19:39:01;;;;;;;13.97;9.37;;;21.60;99.90;;;;;;4972971;28;20197;-81
2023/09/09 19:41:29;;;;;;;16.03;9.50;;;21.40;99.90;;;;;;4956421;28;20617;-81
2023/09/09 19:44:18;;;;;;;15.63;9.67;;;21.50;99.90;;;;;;4972884;28;20193;-82
2023/09/09 19:46:53;;;;;;;13.73;9.63;;;21.40;99.90;;;;;;4987849;28;20193;-81
2023/09/09 19:49:24;;;;;;;15.10;9.20;;;21.40;99.90;;;;;;4972859;28;20192;-81
2023/09/09 19:51:52;;;;;;;16.73;9.87;;;21.30;99.90;;;;;;4973518;28;20226;-79
2023/09/09 19:54:21;;;;;;;16.03;9.67;;;21.30;99.90;;;;;;4972758;28;20198;-79
2023/09/09 19:56:49;;;;;;;15.87;10.47;;;21.20;99.90;;;;;;4972775;28;20277;-78
2023/09/09 19:59:18;;;;;;;14.83;9.80;;;21.20;99.90;;;;;;4973518;28;20193;-79
2023/09/09 20:01:46;;;;;;;13.90;9.70;;;21.20;99.90;;;;;;4972309;28;20197;-79
2023/09/09 20:04:17;;;;;;;18.40;10.17;;;21.20;99.90;;;;;;4956806;28;20260;-78
2023/09/09 20:06:45;;;;;;;16.73;9.77;;;21.10;99.90;;;;;;4972247;28;20312;-79
2023/09/09 20:09:16;;;;;;;16.37;10.10;;;21.10;99.90;;;;;;4956168;28;20198;-78
2023/09/09 20:11:47;;;;;;;15.53;9.57;;;21.00;99.90;;;;;;4971782;28;20221;-81